createdAt,value
2022-08-12T00:01:01.422Z,43.26
2022-08-12T00:03:46.959Z,43.53
2022-08-12T00:06:33.639Z,43.87
2022-08-12T00:09:25.736Z,43.91
2022-08-12T00:12:12.669Z,43.69
2022-08-12T00:15:01.725Z,43.72
2022-08-12T00:17:47.138Z,43.82
2022-08-12T00:20:33.335Z,44.34
2022-08-12T00:23:19.303Z,44.54
2022-08-12T00:26:23.648Z,44.70
2022-08-12T00:29:10.943Z,44.58
2022-08-12T00:31:58.069Z,44.88
2022-08-12T00:34:45.961Z,44.88
2022-08-12T00:37:34.043Z,45.13
2022-08-12T00:40:19.964Z,45.50
2022-08-12T00:42:48.520Z,45.71
2022-08-12T00:45:16.775Z,45.79
2022-08-12T00:47:46.209Z,46.19
2022-08-12T00:50:18.434Z,46.91
2022-08-12T00:52:47.604Z,46.87
2022-08-12T00:55:16.015Z,46.67
2022-08-12T00:57:47.927Z,46.44
2022-08-12T01:00:19.956Z,46.65
2022-08-12T01:02:52.313Z,47.15
2022-08-12T01:05:40.248Z,47.40
2022-08-12T01:08:27.332Z,47.17
2022-08-12T01:11:14.956Z,47.13
2022-08-12T01:13:47.447Z,47.42
2022-08-12T01:16:18.167Z,47.50
2022-08-12T01:18:47.865Z,47.64
2022-08-12T01:21:30.505Z,47.86
2022-08-12T01:24:29.601Z,48.29
2022-08-12T01:27:03.375Z,48.18
2022-08-12T01:29:42.674Z,48.01
2022-08-12T01:32:14.426Z,48.10
2022-08-12T01:34:47.920Z,48.52
2022-08-12T01:37:20.302Z,48.16
2022-08-12T01:40:35.437Z,48.40
2022-08-12T01:42:48.203Z,48.35
2022-08-12T01:45:21.866Z,47.82
2022-08-12T01:48:03.797Z,48.57
2022-08-12T01:50:40.113Z,49.07
2022-08-12T01:53:13.034Z,48.70
2022-08-12T01:55:43.768Z,48.95
2022-08-12T01:58:26.828Z,49.72
2022-08-12T02:00:59.368Z,49.29
2022-08-12T02:04:07.625Z,49.44
2022-08-12T02:07:07.238Z,49.71
2022-08-12T02:10:08.580Z,49.66
2022-08-12T02:12:49.327Z,49.35
2022-08-12T02:15:28.587Z,50.66
2022-08-12T02:18:13.656Z,50.79
2022-08-12T02:20:54.265Z,50.03
2022-08-12T02:23:27.006Z,50.23
2022-08-12T02:25:59.434Z,49.74
2022-08-12T02:28:27.964Z,49.78
2022-08-12T02:31:03.105Z,49.56
2022-08-12T02:33:31.964Z,49.58
2022-08-12T02:36:01.938Z,50.12
2022-08-12T02:38:31.236Z,50.14
2022-08-12T02:41:02.448Z,50.30
2022-08-12T02:43:37.707Z,50.60
2022-08-12T02:46:13.987Z,50.71
2022-08-12T02:48:47.277Z,51.00
2022-08-12T02:51:20.494Z,50.57
2022-08-12T02:54:04.440Z,50.69
2022-08-12T02:56:37.715Z,50.67
2022-08-12T02:59:11.981Z,50.51
2022-08-12T03:01:48.426Z,50.90
2022-08-12T03:04:26.777Z,50.35
2022-08-12T03:07:03.031Z,50.19
2022-08-12T03:09:39.845Z,49.89
2022-08-12T03:12:24.997Z,49.88
2022-08-12T03:14:55.973Z,50.17
2022-08-12T03:17:30.706Z,50.17
2022-08-12T03:20:10.315Z,50.30
2022-08-12T03:22:41.662Z,49.91
2022-08-12T03:25:17.270Z,50.06
2022-08-12T03:27:51.783Z,50.23
2022-08-12T03:30:21.639Z,49.82
2022-08-12T03:32:52.812Z,49.66
2022-08-12T03:35:40.682Z,50.51
2022-08-12T03:38:12.293Z,51.81
2022-08-12T03:41:15.884Z,51.96
2022-08-12T03:44:10.908Z,51.59
2022-08-12T03:47:01.339Z,50.72
2022-08-12T03:49:48.303Z,51.07
2022-08-12T03:52:33.706Z,50.63
2022-08-12T03:55:19.514Z,50.76
2022-08-12T03:58:08.320Z,50.81
2022-08-12T04:00:37.683Z,50.80
2022-08-12T04:03:25.952Z,50.44
2022-08-12T04:05:56.695Z,50.51
2022-08-12T04:08:27.119Z,50.61
2022-08-12T04:11:13.506Z,51.03
2022-08-12T04:13:41.859Z,50.82
2022-08-12T04:16:13.705Z,50.87
2022-08-12T04:18:42.505Z,51.10
2022-08-12T04:21:12.433Z,51.28
2022-08-12T04:23:47.760Z,50.96
2022-08-12T04:26:16.668Z,51.23
2022-08-12T04:28:44.886Z,51.49
2022-08-12T04:31:14.251Z,51.23
2022-08-12T04:33:44.105Z,51.84
2022-08-12T04:36:13.612Z,51.84
2022-08-12T04:38:43.196Z,52.22
2022-08-12T04:41:11.693Z,52.16
2022-08-12T04:43:59.769Z,51.75
2022-08-12T04:46:33.577Z,51.80
2022-08-12T04:49:03.308Z,51.76
2022-08-12T04:51:33.462Z,52.45
2022-08-12T04:54:02.731Z,52.67
2022-08-12T04:56:35.301Z,52.99
2022-08-12T04:59:04.418Z,52.96
2022-08-12T05:01:32.896Z,53.18
2022-08-12T05:04:02.806Z,53.76
2022-08-12T05:06:32.838Z,53.86
2022-08-12T05:09:00.928Z,53.69
2022-08-12T05:11:29.842Z,53.35
2022-08-12T05:14:01.598Z,53.70
2022-08-12T05:16:34.086Z,53.75
2022-08-12T05:19:04.297Z,53.54
2022-08-12T05:21:34.847Z,53.51
2022-08-12T05:24:03.023Z,53.50
2022-08-12T05:26:31.025Z,53.65
2022-08-12T05:28:58.976Z,54.35
2022-08-12T05:31:42.587Z,54.46
2022-08-12T05:34:15.624Z,54.64
2022-08-12T05:36:45.271Z,54.56
2022-08-12T05:39:13.418Z,55.04
2022-08-12T05:41:41.574Z,55.10
2022-08-12T05:44:12.770Z,54.94
2022-08-12T05:46:41.225Z,55.07
2022-08-12T05:49:09.259Z,54.98
2022-08-12T05:51:41.360Z,54.86
2022-08-12T05:54:12.396Z,54.66
2022-08-12T05:56:41.696Z,54.22
2022-08-12T05:59:12.200Z,54.36
2022-08-12T06:02:11.662Z,54.21
2022-08-12T06:04:29.528Z,54.50
2022-08-12T06:06:57.649Z,54.56
2022-08-12T06:09:28.691Z,54.81
2022-08-12T06:12:04.362Z,54.78
2022-08-12T06:14:37.070Z,54.36
2022-08-12T06:17:09.036Z,55.03
2022-08-12T06:20:27.501Z,55.54
2022-08-12T06:22:26.665Z,55.76
2022-08-12T06:24:56.050Z,56.52
2022-08-12T06:27:24.066Z,55.50
2022-08-12T06:30:08.362Z,55.67
2022-08-12T06:32:51.658Z,55.60
2022-08-12T06:35:48.234Z,54.67
2022-08-12T06:38:18.766Z,53.55
2022-08-12T06:41:06.949Z,53.25
2022-08-12T06:44:05.076Z,52.74
2022-08-12T06:46:24.024Z,52.25
2022-08-12T06:48:56.247Z,52.38
2022-08-12T06:51:24.605Z,52.04
2022-08-12T06:53:52.655Z,52.20
2022-08-12T06:56:30.471Z,51.48
2022-08-12T06:59:08.775Z,51.82
2022-08-12T07:01:37.606Z,51.11
2022-08-12T07:04:33.396Z,51.50
2022-08-12T07:06:55.873Z,51.36
2022-08-12T07:10:06.983Z,51.23
2022-08-12T07:12:18.081Z,51.12
2022-08-12T07:14:48.943Z,50.95
2022-08-12T07:17:17.034Z,50.32
2022-08-12T07:19:46.882Z,49.98
2022-08-12T07:22:16.974Z,50.04
2022-08-12T07:25:04.969Z,49.72
2022-08-12T07:27:40.687Z,49.50
2022-08-12T07:30:10.242Z,49.63
2022-08-12T07:32:38.242Z,49.27
2022-08-12T07:35:06.980Z,48.63
2022-08-12T07:37:35.158Z,49.09
2022-08-12T07:40:03.460Z,48.75
2022-08-12T07:42:31.648Z,48.72
2022-08-12T07:45:00.993Z,48.50
2022-08-12T07:47:29.098Z,48.19
2022-08-12T07:50:05.611Z,47.90
2022-08-12T07:52:35.030Z,48.20
2022-08-12T07:55:04.012Z,48.30
2022-08-12T07:57:32.888Z,47.65
2022-08-12T08:00:05.586Z,47.60
2022-08-12T08:02:37.143Z,47.37
2022-08-12T08:05:06.746Z,47.03
2022-08-12T08:07:34.752Z,47.01
2022-08-12T08:10:06.826Z,47.38
2022-08-12T08:12:52.739Z,47.08
2022-08-12T08:15:38.662Z,47.10
2022-08-12T08:18:25.957Z,46.68
2022-08-12T08:20:56.135Z,47.00
2022-08-12T08:23:46.149Z,46.88
2022-08-12T08:26:16.061Z,46.46
2022-08-12T08:28:44.151Z,46.44
2022-08-12T08:31:15.033Z,46.78
2022-08-12T08:34:09.614Z,46.23
2022-08-12T08:36:31.173Z,45.95
2022-08-12T08:38:59.146Z,46.33
2022-08-12T08:42:15.317Z,46.27
2022-08-12T08:44:32.884Z,46.41
2022-08-12T08:47:03.550Z,45.86
2022-08-12T08:49:31.529Z,46.33
2022-08-12T08:52:02.789Z,45.59
2022-08-12T08:54:33.944Z,45.90
2022-08-12T08:57:02.368Z,45.53
2022-08-12T08:59:30.806Z,44.98
2022-08-12T09:02:00.448Z,44.79
2022-08-12T09:05:11.266Z,44.42
2022-08-12T09:10:15.518Z,44.73
2022-08-12T09:13:16.226Z,44.51
2022-08-12T09:15:56.159Z,44.24
2022-08-12T09:18:31.080Z,44.50
2022-08-12T09:21:03.875Z,43.59
2022-08-12T09:23:59.454Z,44.31
2022-08-12T09:29:12.302Z,44.03
2022-08-12T09:32:06.410Z,43.87
2022-08-12T09:34:34.107Z,44.01
2022-08-12T09:37:19.702Z,43.01
2022-08-12T09:40:05.720Z,42.99
2022-08-12T09:43:17.269Z,43.12
2022-08-12T09:46:11.011Z,42.16
2022-08-12T09:48:40.227Z,41.46
2022-08-12T09:51:21.723Z,41.28
2022-08-12T09:54:05.603Z,42.30
2022-08-12T09:56:58.682Z,42.25
2022-08-12T10:00:13.676Z,41.94
2022-08-12T10:02:53.070Z,42.13
2022-08-12T10:05:01.780Z,41.59
2022-08-12T10:07:40.099Z,41.38
2022-08-12T10:10:22.987Z,41.55
2022-08-12T10:13:11.394Z,41.52
2022-08-12T10:16:01.945Z,41.36
2022-08-12T10:18:35.581Z,40.87
2022-08-12T10:21:07.657Z,40.42
2022-08-12T10:23:40.266Z,40.50
2022-08-12T10:26:37.228Z,40.58
2022-08-12T10:30:37.939Z,41.00
2022-08-12T10:32:22.072Z,40.01
2022-08-12T10:35:05.003Z,40.08
2022-08-12T10:38:37.714Z,40.36
2022-08-12T10:40:25.358Z,40.43
2022-08-12T10:43:16.907Z,39.73
2022-08-12T10:45:49.733Z,39.44
2022-08-12T10:48:33.451Z,39.55
2022-08-12T10:52:03.901Z,39.15
2022-08-12T10:53:54.309Z,38.98
2022-08-12T10:56:34.769Z,39.39
2022-08-12T10:59:11.088Z,39.20
2022-08-12T11:04:20.703Z,38.93
2022-08-12T11:04:45.047Z,38.33
2022-08-12T11:08:35.973Z,38.08
2022-08-12T11:10:07.464Z,38.18
2022-08-12T11:12:58.904Z,37.70
2022-08-12T11:16:02.557Z,36.87
2022-08-12T11:18:18.616Z,36.67
2022-08-12T11:20:49.094Z,35.94
2022-08-12T11:23:25.995Z,35.95
2022-08-12T11:26:07.481Z,36.98
2022-08-12T11:28:37.799Z,36.91
2022-08-12T11:31:12.080Z,36.43
2022-08-12T11:34:04.209Z,36.73
2022-08-12T11:36:31.569Z,36.51
2022-08-12T11:39:04.137Z,36.32
2022-08-12T11:41:33.032Z,36.05
2022-08-12T11:44:35.608Z,35.34
2022-08-12T11:46:52.823Z,35.49
2022-08-12T11:49:31.767Z,35.42
2022-08-12T11:52:02.303Z,36.12
2022-08-12T11:54:31.121Z,36.56
2022-08-12T11:57:02.004Z,36.58
2022-08-12T12:02:21.739Z,35.67
2022-08-12T12:04:52.888Z,35.35
2022-08-12T12:08:35.968Z,35.54
2022-08-12T12:10:13.250Z,36.15
2022-08-12T12:12:49.996Z,35.94
2022-08-12T12:15:25.396Z,36.37
2022-08-12T12:18:22.442Z,34.04
2022-08-12T12:21:00.627Z,34.75
2022-08-12T12:23:30.913Z,34.03
2022-08-12T12:26:08.216Z,33.43
2022-08-12T12:28:39.753Z,32.96
2022-08-12T12:31:15.183Z,31.95
2022-08-12T12:33:58.884Z,31.10
2022-08-12T12:36:29.966Z,29.91
2022-08-12T12:39:00.031Z,30.70
2022-08-12T12:42:43.993Z,30.76
2022-08-12T12:44:25.435Z,31.85
2022-08-12T12:46:58.229Z,32.47
2022-08-12T12:49:27.658Z,30.57
2022-08-12T12:52:19.037Z,30.14
2022-08-12T12:54:53.060Z,27.00
2022-08-12T12:57:35.830Z,26.22
2022-08-12T13:00:18.429Z,26.66
2022-08-12T13:02:55.610Z,27.76
2022-08-12T13:05:28.359Z,26.15
2022-08-12T13:08:01.403Z,26.75
2022-08-12T13:10:36.383Z,27.16
2022-08-12T13:14:07.384Z,28.52
2022-08-12T13:15:59.393Z,29.16
2022-08-12T13:18:36.445Z,29.43
2022-08-12T13:21:15.815Z,29.43
2022-08-12T13:23:57.888Z,29.78
2022-08-12T13:26:25.855Z,29.63
2022-08-12T13:28:56.130Z,30.33
2022-08-12T13:31:25.016Z,30.69
2022-08-12T13:34:33.243Z,29.91
2022-08-12T13:36:43.446Z,29.31
2022-08-12T13:39:12.930Z,28.65
2022-08-12T13:41:44.529Z,29.48
2022-08-12T13:44:13.045Z,28.67
2022-08-12T13:46:42.201Z,28.83
2022-08-12T13:49:17.283Z,28.97
2022-08-12T13:51:54.125Z,28.90
2022-08-12T13:54:22.291Z,28.57
2022-08-12T13:56:51.577Z,28.93
2022-08-12T13:59:23.737Z,27.88
2022-08-12T14:01:56.804Z,27.50
2022-08-12T14:04:25.042Z,28.55
2022-08-12T14:06:58.137Z,27.79
2022-08-12T14:09:29.892Z,27.61
2022-08-12T14:11:59.895Z,27.84
2022-08-12T14:14:31.043Z,27.58
2022-08-12T14:17:02.251Z,27.76
2022-08-12T14:19:37.958Z,28.19
2022-08-12T14:22:14.601Z,27.48
2022-08-12T14:24:43.591Z,28.60
2022-08-12T14:27:13.456Z,27.93
2022-08-12T14:30:06.222Z,27.62
2022-08-12T14:32:34.935Z,27.32
2022-08-12T14:35:05.253Z,27.20
2022-08-12T14:37:56.406Z,26.57
2022-08-12T14:40:27.442Z,27.06
2022-08-12T14:42:56.848Z,26.75
2022-08-12T14:45:45.424Z,27.30
2022-08-12T14:48:15.996Z,26.91
2022-08-12T14:51:09.723Z,26.54
2022-08-12T14:59:56.692Z,26.44
2022-08-12T15:02:20.720Z,25.99
2022-08-12T15:04:58.960Z,26.25
2022-08-12T15:07:33.383Z,27.47
2022-08-12T15:10:31.543Z,27.05
2022-08-12T15:13:07.513Z,26.79
2022-08-12T15:15:44.187Z,26.15
2022-08-12T15:18:21.622Z,25.75
2022-08-12T15:20:54.510Z,25.61
2022-08-12T15:23:24.084Z,26.06
2022-08-12T15:26:03.225Z,25.33
2022-08-12T15:28:33.530Z,25.89
2022-08-12T15:31:02.477Z,25.57
2022-08-12T15:33:44.741Z,25.15
2022-08-12T15:36:19.535Z,25.87
2022-08-12T15:39:03.364Z,24.23
2022-08-12T15:41:49.119Z,25.36
2022-08-12T15:44:42.081Z,25.07
2022-08-12T15:47:07.352Z,25.62
2022-08-12T15:49:43.005Z,25.46
2022-08-12T15:52:27.949Z,25.69
2022-08-12T15:54:58.793Z,25.55
2022-08-12T15:57:33.347Z,26.20
2022-08-12T16:00:22.473Z,26.12
2022-08-12T16:03:01.825Z,26.87
2022-08-12T16:06:16.767Z,27.13
2022-08-12T16:08:27.479Z,26.70
2022-08-12T16:10:56.393Z,26.94
2022-08-12T16:13:34.602Z,27.50
2022-08-12T16:16:22.431Z,27.15
2022-08-12T16:18:52.714Z,28.08
2022-08-12T16:21:52.095Z,27.86
2022-08-12T16:24:12.940Z,27.69
2022-08-12T16:26:45.094Z,27.75
2022-08-12T16:29:16.352Z,27.46
2022-08-12T16:31:45.209Z,28.45
2022-08-12T16:34:25.850Z,28.29
2022-08-12T16:37:04.514Z,28.34
2022-08-12T16:40:00.369Z,27.92
2022-08-12T16:42:28.399Z,28.25
2022-08-12T16:45:02.287Z,28.58
2022-08-12T16:47:43.884Z,27.91
2022-08-12T16:50:22.712Z,27.82
2022-08-12T16:53:02.444Z,27.75
2022-08-12T16:55:42.163Z,27.91
2022-08-12T16:58:25.605Z,27.63
2022-08-12T17:01:01.950Z,28.15
2022-08-12T17:03:36.642Z,27.41
2022-08-12T17:06:06.490Z,27.50
2022-08-12T17:08:35.184Z,27.38
2022-08-12T17:11:08.521Z,27.38
2022-08-12T17:13:36.680Z,27.59
2022-08-12T17:16:24.142Z,27.59
2022-08-12T17:18:59.451Z,27.29
2022-08-12T17:21:41.722Z,27.76
2022-08-12T17:24:21.561Z,27.44
2022-08-12T17:26:53.124Z,27.32
2022-08-12T17:29:32.163Z,27.09
2022-08-12T17:32:13.268Z,27.28
2022-08-12T17:35:00.089Z,26.83
2022-08-12T17:37:28.580Z,26.88
2022-08-12T17:40:11.984Z,26.00
2022-08-12T17:42:47.859Z,26.52
2022-08-12T17:45:19.286Z,26.15
2022-08-12T17:48:04.622Z,26.37
2022-08-12T17:50:36.845Z,26.22
2022-08-12T17:53:08.088Z,25.67
2022-08-12T17:55:47.594Z,25.38
2022-08-12T17:58:18.067Z,25.99
2022-08-12T18:00:50.461Z,25.69
2022-08-12T18:04:05.788Z,26.03
2022-08-12T18:06:13.958Z,26.17
2022-08-12T18:08:54.724Z,26.08
2022-08-12T18:12:05.812Z,26.68
2022-08-12T18:14:30.802Z,26.81
2022-08-12T18:17:02.367Z,26.94
2022-08-12T18:20:03.674Z,26.79
2022-08-12T18:22:30.871Z,26.09
2022-08-12T18:25:04.712Z,26.76
2022-08-12T18:27:44.236Z,25.88
2022-08-12T18:30:21.043Z,26.21
2022-08-12T18:33:04.069Z,25.87
2022-08-12T18:35:53.348Z,26.17
2022-08-12T18:38:25.039Z,26.24
2022-08-12T18:41:20.919Z,26.29
2022-08-12T18:43:59.452Z,26.07
2022-08-12T18:46:35.950Z,25.77
2022-08-12T18:49:17.707Z,25.56
2022-08-12T18:51:55.404Z,25.79
2022-08-12T18:54:33.254Z,25.72
2022-08-12T18:57:03.875Z,26.04
2022-08-12T19:00:02.097Z,25.72
2022-08-12T19:02:23.201Z,25.86
2022-08-12T19:04:53.826Z,26.16
2022-08-12T19:07:29.672Z,26.02
2022-08-12T19:10:14.371Z,25.88
2022-08-12T19:13:00.652Z,25.90
2022-08-12T19:15:30.121Z,26.53
2022-08-12T19:18:02.482Z,26.68
2022-08-12T19:20:31.684Z,26.99
2022-08-12T19:23:07.802Z,26.76
2022-08-12T19:26:01.354Z,27.04
2022-08-12T19:28:30.052Z,26.71
2022-08-12T19:31:45.265Z,27.00
2022-08-12T19:37:27.509Z,27.46
2022-08-12T19:40:20.349Z,27.50
2022-08-12T19:43:00.881Z,27.33
2022-08-12T19:45:43.558Z,27.61
2022-08-12T19:48:18.935Z,27.84
2022-08-12T19:50:50.348Z,27.44
2022-08-12T19:53:22.903Z,27.88
2022-08-12T19:55:55.300Z,28.04
2022-08-12T19:58:24.611Z,27.94
2022-08-12T20:00:54.638Z,27.93
2022-08-12T20:03:37.880Z,28.19
2022-08-12T20:06:13.803Z,27.65
2022-08-12T20:08:47.897Z,27.83
2022-08-12T20:12:11.622Z,28.19
2022-08-12T20:14:09.420Z,28.37
2022-08-12T20:16:57.675Z,28.06
2022-08-12T20:19:52.147Z,28.32
2022-08-12T20:22:23.933Z,28.67
2022-08-12T20:24:54.993Z,28.85
2022-08-12T20:28:02.948Z,28.42
2022-08-12T20:30:20.346Z,28.63
2022-08-12T20:33:00.561Z,28.58
2022-08-12T20:36:06.257Z,29.19
2022-08-12T20:38:26.525Z,28.90
2022-08-12T20:40:55.182Z,29.11
2022-08-12T20:43:28.328Z,29.08
2022-08-12T20:46:00.191Z,28.74
2022-08-12T20:48:29.515Z,29.48
2022-08-12T20:51:04.200Z,28.77
2022-08-12T20:53:58.434Z,29.10
2022-08-12T20:56:31.182Z,29.67
2022-08-12T20:59:03.244Z,29.41
2022-08-12T21:01:46.493Z,29.86
2022-08-12T21:04:35.597Z,30.07
2022-08-12T21:07:09.114Z,30.14
2022-08-12T21:09:42.484Z,29.80
2022-08-12T21:12:28.509Z,29.74
2022-08-12T21:15:18.201Z,29.82
2022-08-12T21:18:10.714Z,30.04
2022-08-12T21:20:50.194Z,29.99
2022-08-12T21:23:21.243Z,30.12
2022-08-12T21:25:51.120Z,30.16
2022-08-12T21:28:27.662Z,30.50
2022-08-12T21:32:34.592Z,30.77
2022-08-12T21:34:07.343Z,30.98
2022-08-12T21:36:40.156Z,30.94
2022-08-12T21:39:20.723Z,31.16
2022-08-12T21:41:52.237Z,31.48
2022-08-12T21:44:24.352Z,31.06
2022-08-12T21:47:20.066Z,31.59
2022-08-12T21:50:02.512Z,31.57
2022-08-12T21:52:34.633Z,31.69
2022-08-12T21:55:08.073Z,31.94
2022-08-12T21:57:51.041Z,31.86
2022-08-12T22:00:32.252Z,31.67
2022-08-12T22:04:05.987Z,31.34
2022-08-12T22:06:30.328Z,31.46
2022-08-12T22:09:04.309Z,31.68
2022-08-12T22:11:41.904Z,31.59
2022-08-12T22:14:21.934Z,31.83
2022-08-12T22:16:53.500Z,32.22
2022-08-12T22:19:23.471Z,32.26
2022-08-12T22:21:53.870Z,32.56
2022-08-12T22:24:27.050Z,32.94
2022-08-12T22:26:59.603Z,32.75
2022-08-12T22:30:03.987Z,33.09
2022-08-12T22:32:33.644Z,33.14
2022-08-12T22:35:24.092Z,33.28
2022-08-12T22:37:53.555Z,33.41
2022-08-12T22:40:24.015Z,33.19
2022-08-12T22:43:15.665Z,33.50
2022-08-12T22:46:01.538Z,34.09
2022-08-12T22:48:30.660Z,33.75
2022-08-12T22:51:00.200Z,33.95
2022-08-12T22:53:35.786Z,33.88
2022-08-12T22:56:07.103Z,33.67
2022-08-12T22:58:41.287Z,33.74
2022-08-12T23:01:21.066Z,33.77
2022-08-12T23:03:51.096Z,33.93
2022-08-12T23:06:26.997Z,34.38
2022-08-12T23:08:56.256Z,34.15
2022-08-12T23:11:25.607Z,34.52
2022-08-12T23:14:04.347Z,34.31
2022-08-12T23:16:34.324Z,34.32
2022-08-12T23:19:10.335Z,34.19
2022-08-12T23:22:05.206Z,34.55
2022-08-12T23:24:54.119Z,34.87
2022-08-12T23:27:50.597Z,34.78
2022-08-12T23:30:31.813Z,34.50
2022-08-12T23:33:03.027Z,34.47
2022-08-12T23:35:53.517Z,34.50
2022-08-12T23:38:34.673Z,34.36
2022-08-12T23:41:05.705Z,34.61
2022-08-12T23:43:39.847Z,34.77
2022-08-12T23:46:10.020Z,34.82
2022-08-12T23:48:38.719Z,34.98
2022-08-12T23:51:22.635Z,35.01
2022-08-12T23:53:56.337Z,35.14
2022-08-12T23:56:29.218Z,35.44
2022-08-12T23:58:57.451Z,35.61
